Time;durP1;ratioP1;P1;durP2;ratioP2;P2;SDS_P1;SDS_P2;PMS_P1;PMS_P2;Temp;Humidity;BMP_temperature;BMP_pressure;BME280_temperature;BME280_humidity;BME280_pressure;Samples;Min_cycle;Max_cycle;Signal;HPM_P1;HPM_P2
2021/12/30 00:01:47;;;;;;;13.73;10.63;;;;;;;;;;4850067;29;32336;-65
2021/12/30 00:04:16;;;;;;;12.50;10.07;;;;;;;;;;4850432;29;32386;-68
2021/12/30 00:06:44;;;;;;;14.57;10.25;;;;;;;;;;4850427;29;35503;-65
2021/12/30 00:09:15;;;;;;;14.30;10.18;;;;;;;;;;4849982;29;32499;-67
2021/12/30 00:11:44;;;;;;;10.68;9.57;;;;;;;;;;4849935;29;32490;-65
2021/12/30 00:14:12;;;;;;;13.50;10.10;;;;;;;;;;4849782;29;32845;-65
2021/12/30 00:16:41;;;;;;;11.18;9.90;;;;;;;;;;4850596;29;32215;-65
2021/12/30 00:19:09;;;;;;;15.05;10.38;;;;;;;;;;4850042;29;32480;-64
2021/12/30 00:21:37;;;;;;;14.80;10.02;;;;;;;;;;4849864;29;32276;-65
2021/12/30 00:24:06;;;;;;;12.23;8.82;;;;;;;;;;4850010;29;32326;-66
2021/12/30 00:26:34;;;;;;;12.65;10.45;;;;;;;;;;4850224;29;32312;-65
2021/12/30 00:29:02;;;;;;;11.63;10.40;;;;;;;;;;4849761;29;34670;-67
2021/12/30 00:31:30;;;;;;;14.80;10.65;;;;;;;;;;4849413;29;32190;-66
2021/12/30 00:33:59;;;;;;;11.10;10.07;;;;;;;;;;4849695;29;32323;-66
2021/12/30 00:36:27;;;;;;;18.70;10.68;;;;;;;;;;4850198;29;32272;-67
2021/12/30 00:38:55;;;;;;;14.57;9.38;;;;;;;;;;4850265;29;32239;-66
2021/12/30 00:41:23;;;;;;;13.20;9.70;;;;;;;;;;4849706;29;32635;-67
2021/12/30 00:43:51;;;;;;;14.88;9.55;;;;;;;;;;4849646;29;32239;-67
2021/12/30 00:46:19;;;;;;;12.50;9.85;;;;;;;;;;4848880;29;32595;-66
2021/12/30 00:48:47;;;;;;;11.43;10.18;;;;;;;;;;4849941;29;32132;-66
2021/12/30 00:51:17;;;;;;;10.40;9.43;;;;;;;;;;4850064;29;35097;-66
2021/12/30 00:53:44;;;;;;;11.80;9.85;;;;;;;;;;4849099;29;32388;-68
2021/12/30 00:56:12;;;;;;;10.45;9.35;;;;;;;;;;4849657;29;32289;-67
2021/12/30 00:58:40;;;;;;;12.13;8.80;;;;;;;;;;4849415;29;32371;-64
2021/12/30 01:01:09;;;;;;;12.95;9.52;;;;;;;;;;4848430;29;32401;-69
2021/12/30 01:03:37;;;;;;;12.52;10.15;;;;;;;;;;4848691;29;32500;-65
2021/12/30 01:06:05;;;;;;;13.23;10.10;;;;;;;;;;4849781;29;32513;-65
2021/12/30 01:08:34;;;;;;;12.60;10.25;;;;;;;;;;4849480;29;32320;-67
2021/12/30 01:11:07;;;;;;;14.50;9.95;;;;;;;;;;4849160;29;32392;-64
2021/12/30 01:13:39;;;;;;;14.88;10.23;;;;;;;;;;4849414;29;33942;-65
2021/12/30 01:16:17;;;;;;;13.50;10.18;;;;;;;;;;4848686;29;32244;-68
2021/12/30 01:19:03;;;;;;;10.95;9.20;;;;;;;;;;4848843;29;32434;-65
2021/12/30 01:21:34;;;;;;;17.35;10.75;;;;;;;;;;4848786;29;32350;-68
2021/12/30 01:24:04;;;;;;;13.30;10.47;;;;;;;;;;4849383;29;32426;-66
2021/12/30 01:26:32;;;;;;;11.75;10.50;;;;;;;;;;4849226;29;32379;-65
2021/12/30 01:29:00;;;;;;;14.50;10.48;;;;;;;;;;4849236;29;32250;-65
2021/12/30 01:31:28;;;;;;;12.50;9.43;;;;;;;;;;4849145;29;32495;-65
2021/12/30 01:33:56;;;;;;;13.55;9.68;;;;;;;;;;4848946;29;32289;-65
2021/12/30 01:36:26;;;;;;;11.05;9.77;;;;;;;;;;4849114;29;33938;-65
2021/12/30 01:38:56;;;;;;;15.10;9.52;;;;;;;;;;4849195;29;32117;-68
2021/12/30 01:41:25;;;;;;;10.77;9.68;;;;;;;;;;4849449;29;32521;-67
2021/12/30 01:43:53;;;;;;;12.35;8.77;;;;;;;;;;4849359;29;32189;-66
2021/12/30 01:46:21;;;;;;;10.52;8.88;;;;;;;;;;4849425;29;32370;-69
2021/12/30 01:48:49;;;;;;;14.13;9.82;;;;;;;;;;4848286;29;32518;-66
2021/12/30 01:51:18;;;;;;;12.05;8.50;;;;;;;;;;4849100;29;32454;-67
2021/12/30 01:53:46;;;;;;;12.73;10.23;;;;;;;;;;4848417;29;32344;-67
2021/12/30 01:56:13;;;;;;;14.32;8.75;;;;;;;;;;4848743;29;32276;-68
2021/12/30 01:58:43;;;;;;;10.88;8.73;;;;;;;;;;4849186;29;34577;-67
2021/12/30 02:01:11;;;;;;;11.20;8.90;;;;;;;;;;4849043;29;32483;-67
2021/12/30 02:03:39;;;;;;;9.65;8.70;;;;;;;;;;4848461;29;32395;-67
2021/12/30 02:06:07;;;;;;;9.35;8.45;;;;;;;;;;4848424;29;32403;-67
2021/12/30 02:08:35;;;;;;;9.85;8.93;;;;;;;;;;4847490;29;34553;-67
2021/12/30 02:11:03;;;;;;;11.75;8.93;;;;;;;;;;4846924;29;32456;-67
2021/12/30 02:13:31;;;;;;;10.75;8.43;;;;;;;;;;4848538;29;32431;-66
2021/12/30 02:16:02;;;;;;;13.73;9.02;;;;;;;;;;4847259;29;32280;-67
2021/12/30 02:18:31;;;;;;;8.93;7.90;;;;;;;;;;4849023;29;32241;-65
2021/12/30 02:21:01;;;;;;;13.18;8.32;;;;;;;;;;4848876;29;34577;-66
2021/12/30 02:23:31;;;;;;;8.85;8.02;;;;;;;;;;4851152;29;32226;-65
2021/12/30 02:26:03;;;;;;;9.63;8.52;;;;;;;;;;4866614;29;32403;-67
2021/12/30 02:28:34;;;;;;;10.90;8.23;;;;;;;;;;4867222;29;32383;-66
2021/12/30 02:31:06;;;;;;;9.02;8.13;;;;;;;;;;4867525;29;33937;-65
2021/12/30 02:33:35;;;;;;;15.73;8.15;;;;;;;;;;4867363;29;32485;-65
2021/12/30 02:36:05;;;;;;;12.38;8.98;;;;;;;;;;4867363;29;32399;-68
2021/12/30 02:38:33;;;;;;;11.10;8.95;;;;;;;;;;4866570;29;32415;-68
2021/12/30 02:41:02;;;;;;;9.15;8.18;;;;;;;;;;4866771;29;32409;-66
2021/12/30 02:43:33;;;;;;;9.55;8.40;;;;;;;;;;4867162;29;34814;-65
2021/12/30 02:46:02;;;;;;;9.65;8.48;;;;;;;;;;4866634;29;32393;-67
2021/12/30 02:48:33;;;;;;;9.93;9.00;;;;;;;;;;4861626;29;32312;-65
2021/12/30 02:51:05;;;;;;;10.02;9.05;;;;;;;;;;4854088;29;32795;-66
2021/12/30 02:53:33;;;;;;;13.32;9.48;;;;;;;;;;4855303;29;34186;-64
2021/12/30 02:56:02;;;;;;;14.15;8.60;;;;;;;;;;4856000;29;32598;-65
2021/12/30 02:58:30;;;;;;;9.48;8.52;;;;;;;;;;4858334;29;32459;-67
2021/12/30 03:01:02;;;;;;;12.65;9.15;;;;;;;;;;4855854;29;32432;-67
2021/12/30 03:03:30;;;;;;;9.52;8.55;;;;;;;;;;4857276;29;32198;-66
2021/12/30 03:06:00;;;;;;;14.68;9.38;;;;;;;;;;4857517;29;34053;-67
2021/12/30 03:08:30;;;;;;;14.45;8.95;;;;;;;;;;4854266;29;32402;-65
2021/12/30 03:10:59;;;;;;;12.00;8.43;;;;;;;;;;4848835;29;32279;-65
2021/12/30 03:13:31;;;;;;;9.07;8.15;;;;;;;;;;4848804;29;32400;-65
2021/12/30 03:16:02;;;;;;;8.93;8.07;;;;;;;;;;4854770;29;34971;-65
2021/12/30 03:18:31;;;;;;;13.05;8.15;;;;;;;;;;4857489;29;32422;-64
2021/12/30 03:21:01;;;;;;;8.82;7.60;;;;;;;;;;4852281;29;32316;-64
2021/12/30 03:23:31;;;;;;;10.23;8.75;;;;;;;;;;4847892;29;32356;-64
2021/12/30 03:25:59;;;;;;;12.43;8.77;;;;;;;;;;4866178;29;32459;-65
2021/12/30 03:28:27;;;;;;;9.70;8.27;;;;;;;;;;4869338;29;35253;-66
2021/12/30 03:30:58;;;;;;;9.18;8.27;;;;;;;;;;4859859;29;32330;-64
2021/12/30 03:33:27;;;;;;;7.82;7.00;;;;;;;;;;4867323;29;32452;-67
2021/12/30 03:35:59;;;;;;;9.80;8.65;;;;;;;;;;4866903;29;32433;-66
2021/12/30 03:38:27;;;;;;;9.38;8.13;;;;;;;;;;4845479;23;34183;-66
2021/12/30 03:40:57;;;;;;;8.48;7.68;;;;;;;;;;4832164;29;32337;-65
2021/12/30 03:43:25;;;;;;;12.00;8.30;;;;;;;;;;4830979;29;32286;-64
2021/12/30 03:45:53;;;;;;;9.35;8.50;;;;;;;;;;4831736;29;32432;-65
2021/12/30 03:48:21;;;;;;;9.20;8.30;;;;;;;;;;4831893;29;32104;-67
2021/12/30 03:50:51;;;;;;;12.13;8.05;;;;;;;;;;4831166;29;34564;-67
2021/12/30 03:53:19;;;;;;;12.35;8.73;;;;;;;;;;4830766;29;32385;-65
2021/12/30 03:55:51;;;;;;;11.98;8.95;;;;;;;;;;4829758;29;32191;-67
2021/12/30 03:58:20;;;;;;;10.50;8.38;;;;;;;;;;4829149;29;32329;-66
2021/12/30 04:00:48;;;;;;;9.25;8.25;;;;;;;;;;4831372;29;35013;-66
2021/12/30 04:03:16;;;;;;;9.75;8.32;;;;;;;;;;4831774;29;32342;-66
2021/12/30 04:05:45;;;;;;;12.00;8.68;;;;;;;;;;4830225;29;32502;-65
2021/12/30 04:08:13;;;;;;;10.88;9.75;;;;;;;;;;4831435;29;32420;-65
2021/12/30 04:10:41;;;;;;;13.35;8.38;;;;;;;;;;4831240;29;32385;-65
2021/12/30 04:13:09;;;;;;;10.18;8.05;;;;;;;;;;4831602;29;35010;-67
2021/12/30 04:15:38;;;;;;;11.50;8.40;;;;;;;;;;4831050;29;32211;-64
2021/12/30 04:18:07;;;;;;;10.20;9.05;;;;;;;;;;4829878;29;32454;-65
2021/12/30 04:20:35;;;;;;;10.27;9.27;;;;;;;;;;4830292;29;32354;-64
2021/12/30 04:23:04;;;;;;;14.25;9.40;;;;;;;;;;4829987;29;35865;-67
2021/12/30 04:25:32;;;;;;;12.65;8.70;;;;;;;;;;4829292;29;32436;-66
2021/12/30 04:28:00;;;;;;;13.15;9.27;;;;;;;;;;4830447;29;32384;-66
2021/12/30 04:30:28;;;;;;;14.98;9.02;;;;;;;;;;4830369;29;32461;-66
2021/12/30 04:32:58;;;;;;;10.95;8.85;;;;;;;;;;4830947;29;32532;-64
2021/12/30 04:35:26;;;;;;;11.70;8.95;;;;;;;;;;4829301;29;34673;-66
2021/12/30 04:37:54;;;;;;;11.20;9.38;;;;;;;;;;4829183;29;32287;-65
2021/12/30 04:40:22;;;;;;;11.05;9.00;;;;;;;;;;4829053;29;32497;-69
2021/12/30 04:42:50;;;;;;;11.13;8.82;;;;;;;;;;4829150;29;32504;-66
2021/12/30 04:45:18;;;;;;;13.93;8.73;;;;;;;;;;4829606;29;34253;-65
2021/12/30 04:47:46;;;;;;;11.88;8.48;;;;;;;;;;4827696;29;32283;-65
2021/12/30 04:50:16;;;;;;;10.68;9.32;;;;;;;;;;4830474;29;32373;-66
2021/12/30 04:52:44;;;;;;;13.95;9.50;;;;;;;;;;4830828;29;32196;-65
2021/12/30 04:55:12;;;;;;;11.27;9.60;;;;;;;;;;4831444;29;32343;-69
2021/12/30 04:57:40;;;;;;;11.55;9.45;;;;;;;;;;4831039;29;34588;-65
2021/12/30 05:00:13;;;;;;;9.80;8.85;;;;;;;;;;4830957;29;32412;-66
2021/12/30 05:03:07;;;;;;;13.50;9.13;;;;;;;;;;4831216;29;32410;-64
2021/12/30 05:05:38;;;;;;;12.90;9.93;;;;;;;;;;4830817;29;32326;-68
2021/12/30 05:08:06;;;;;;;;;;;;;;;;;;4831208;29;34265;-67
2021/12/30 05:10:35;;;;;;;10.65;8.60;;;;;;;;;;4830837;29;32357;-68
2021/12/30 05:13:04;;;;;;;13.38;10.23;;;;;;;;;;4831033;29;32436;-68
2021/12/30 05:15:32;;;;;;;13.82;9.90;;;;;;;;;;4830948;29;32308;-65
2021/12/30 05:18:00;;;;;;;13.18;10.00;;;;;;;;;;4831031;29;32283;-68
2021/12/30 05:20:28;;;;;;;12.65;9.50;;;;;;;;;;4830794;29;33939;-65
2021/12/30 05:22:58;;;;;;;14.27;9.30;;;;;;;;;;4830278;29;32396;-66
2021/12/30 05:25:28;;;;;;;9.88;8.88;;;;;;;;;;4830782;29;32399;-66
2021/12/30 05:27:56;;;;;;;12.95;9.10;;;;;;;;;;4830869;29;32313;-68
2021/12/30 05:30:26;;;;;;;10.68;8.90;;;;;;;;;;4829881;29;34124;-66
2021/12/30 05:32:56;;;;;;;10.45;8.77;;;;;;;;;;4830124;29;32273;-64
2021/12/30 05:35:26;;;;;;;10.38;9.13;;;;;;;;;;4828961;29;32382;-69
2021/12/30 05:37:54;;;;;;;10.23;9.18;;;;;;;;;;4829809;29;32518;-69
2021/12/30 05:40:25;;;;;;;12.35;9.52;;;;;;;;;;4830260;29;32258;-68
2021/12/30 05:42:53;;;;;;;10.27;9.20;;;;;;;;;;4830180;29;34907;-66
2021/12/30 05:45:21;;;;;;;12.00;8.45;;;;;;;;;;4830176;29;32369;-68
2021/12/30 05:47:52;;;;;;;11.32;8.77;;;;;;;;;;4829589;29;32495;-65
2021/12/30 05:50:22;;;;;;;13.35;9.38;;;;;;;;;;4830591;29;32293;-67
2021/12/30 05:52:50;;;;;;;12.10;8.98;;;;;;;;;;4830067;29;35526;-66
2021/12/30 05:55:19;;;;;;;10.38;8.50;;;;;;;;;;4830229;29;32367;-65
2021/12/30 05:57:49;;;;;;;10.60;9.35;;;;;;;;;;4829881;29;32392;-66
2021/12/30 06:00:21;;;;;;;13.60;8.80;;;;;;;;;;4830381;29;32514;-67
2021/12/30 06:02:49;;;;;;;10.73;8.77;;;;;;;;;;4830192;29;32428;-66
2021/12/30 06:05:17;;;;;;;9.98;8.95;;;;;;;;;;4829691;29;35104;-67
2021/12/30 06:07:45;;;;;;;9.77;8.88;;;;;;;;;;4830171;29;32362;-67
2021/12/30 06:10:13;;;;;;;11.15;8.57;;;;;;;;;;4830155;29;32357;-65
2021/12/30 06:12:43;;;;;;;14.73;8.57;;;;;;;;;;4830026;29;32145;-67
2021/12/30 06:15:13;;;;;;;10.82;8.77;;;;;;;;;;4829897;29;34240;-65
2021/12/30 06:17:42;;;;;;;14.15;9.38;;;;;;;;;;4829625;29;32443;-67
2021/12/30 06:20:13;;;;;;;13.13;9.27;;;;;;;;;;4829861;29;32298;-67
2021/12/30 06:22:41;;;;;;;16.67;9.27;;;;;;;;;;4828986;29;32416;-67
2021/12/30 06:25:10;;;;;;;11.80;9.25;;;;;;;;;;4829713;29;32417;-65
2021/12/30 06:27:38;;;;;;;10.18;8.88;;;;;;;;;;4828514;29;34653;-66
2021/12/30 06:30:08;;;;;;;14.73;10.05;;;;;;;;;;4829912;29;32278;-68
2021/12/30 06:32:38;;;;;;;14.63;9.45;;;;;;;;;;4829738;29;32525;-65
2021/12/30 06:35:08;;;;;;;14.43;10.10;;;;;;;;;;4829614;29;32318;-67
2021/12/30 06:37:37;;;;;;;15.45;9.65;;;;;;;;;;4827466;29;34613;-66
2021/12/30 06:40:07;;;;;;;20.00;10.18;;;;;;;;;;4829760;29;32339;-67
2021/12/30 06:42:35;;;;;;;16.17;9.63;;;;;;;;;;4829476;29;32375;-66
2021/12/30 06:45:03;;;;;;;17.05;10.25;;;;;;;;;;4829548;29;32413;-65
2021/12/30 06:47:31;;;;;;;24.35;10.27;;;;;;;;;;4829405;29;32461;-67
2021/12/30 06:50:02;;;;;;;18.60;10.00;;;;;;;;;;4829177;29;34552;-66
2021/12/30 06:52:32;;;;;;;24.40;11.20;;;;;;;;;;4829513;29;32538;-65
2021/12/30 06:55:00;;;;;;;23.55;10.90;;;;;;;;;;4829771;29;32210;-66
2021/12/30 06:57:29;;;;;;;25.30;11.32;;;;;;;;;;4828940;29;32319;-65
2021/12/30 06:59:57;;;;;;;26.40;11.25;;;;;;;;;;4828406;29;33950;-67
2021/12/30 07:02:25;;;;;;;14.68;10.18;;;;;;;;;;4829127;29;32295;-67
2021/12/30 07:04:53;;;;;;;31.65;11.27;;;;;;;;;;4829162;29;32286;-65
2021/12/30 07:07:22;;;;;;;14.63;10.52;;;;;;;;;;4828788;29;32170;-65
2021/12/30 07:09:51;;;;;;;14.27;9.60;;;;;;;;;;4829193;29;32362;-66
2021/12/30 07:12:19;;;;;;;17.10;10.50;;;;;;;;;;4828910;29;33914;-66
2021/12/30 07:14:47;;;;;;;15.05;9.73;;;;;;;;;;4828561;29;32379;-66
2021/12/30 07:17:15;;;;;;;15.95;10.60;;;;;;;;;;4829001;29;32374;-66
2021/12/30 07:19:43;;;;;;;13.75;9.27;;;;;;;;;;4828982;29;32205;-68
2021/12/30 07:22:11;;;;;;;15.40;9.63;;;;;;;;;;4828857;29;33949;-65
2021/12/30 07:24:40;;;;;;;11.18;8.70;;;;;;;;;;4828851;29;32443;-67
2021/12/30 07:27:08;;;;;;;14.25;9.68;;;;;;;;;;4828974;29;32361;-68
2021/12/30 07:29:36;;;;;;;16.85;10.38;;;;;;;;;;4828998;29;32378;-66
2021/12/30 07:32:05;;;;;;;12.77;9.57;;;;;;;;;;4829064;29;32270;-66
2021/12/30 07:34:33;;;;;;;17.80;9.63;;;;;;;;;;4828664;29;34525;-64
2021/12/30 07:37:00;;;;;;;15.57;10.82;;;;;;;;;;4827998;29;32468;-67
2021/12/30 07:39:28;;;;;;;13.75;10.15;;;;;;;;;;4827779;29;32482;-65
2021/12/30 07:41:58;;;;;;;16.33;9.55;;;;;;;;;;4825935;29;32493;-66
2021/12/30 07:44:27;;;;;;;15.52;10.52;;;;;;;;;;4810290;29;34079;-69
2021/12/30 07:46:55;;;;;;;13.20;9.93;;;;;;;;;;4809964;29;32512;-68
2021/12/30 07:49:23;;;;;;;12.25;10.13;;;;;;;;;;4810133;29;32462;-66
2021/12/30 07:51:51;;;;;;;16.27;10.70;;;;;;;;;;4810094;29;32429;-67
2021/12/30 07:54:19;;;;;;;12.27;10.55;;;;;;;;;;4809704;29;32127;-64
2021/12/30 07:56:47;;;;;;;15.10;10.40;;;;;;;;;;4810015;29;35444;-65
2021/12/30 07:59:17;;;;;;;12.60;10.30;;;;;;;;;;4810100;29;32417;-65
2021/12/30 08:01:45;;;;;;;19.20;9.95;;;;;;;;;;4809825;29;32291;-64
2021/12/30 08:04:13;;;;;;;11.45;10.27;;;;;;;;;;4809280;29;32466;-67
2021/12/30 08:06:40;;;;;;;12.77;10.57;;;;;;;;;;4809779;29;34176;-67
2021/12/30 08:09:08;;;;;;;16.02;10.73;;;;;;;;;;4810362;29;32087;-69
2021/12/30 08:11:36;;;;;;;16.90;11.15;;;;;;;;;;4811240;29;32349;-66
2021/12/30 08:14:04;;;;;;;11.82;9.77;;;;;;;;;;4812050;29;32539;-65
2021/12/30 08:16:34;;;;;;;12.25;9.70;;;;;;;;;;4812793;29;32130;-65
2021/12/30 08:19:02;;;;;;;10.68;9.18;;;;;;;;;;4812679;29;34323;-65
2021/12/30 08:21:30;;;;;;;11.40;8.88;;;;;;;;;;4813160;29;32212;-66
2021/12/30 08:23:58;;;;;;;10.13;9.20;;;;;;;;;;4812569;29;32305;-65
2021/12/30 08:26:26;;;;;;;10.48;9.20;;;;;;;;;;4812610;29;32483;-67
2021/12/30 08:28:54;;;;;;;16.33;10.82;;;;;;;;;;4812389;29;35662;-69
2021/12/30 08:31:22;;;;;;;15.00;9.00;;;;;;;;;;4812483;29;32346;-68
2021/12/30 08:33:52;;;;;;;9.10;8.32;;;;;;;;;;4812359;29;32440;-69
2021/12/30 08:36:20;;;;;;;12.00;9.13;;;;;;;;;;4812899;29;32449;-66
2021/12/30 08:38:48;;;;;;;10.05;8.70;;;;;;;;;;4813071;29;32434;-66
2021/12/30 08:41:16;;;;;;;8.98;7.85;;;;;;;;;;4812274;29;34161;-69
2021/12/30 08:43:44;;;;;;;11.48;8.13;;;;;;;;;;4812348;29;32359;-69
2021/12/30 08:46:12;;;;;;;9.40;7.53;;;;;;;;;;4811617;29;32415;-67
2021/12/30 08:48:40;;;;;;;8.60;7.35;;;;;;;;;;4812045;29;32149;-69
2021/12/30 08:51:10;;;;;;;9.50;8.52;;;;;;;;;;4811854;29;34718;-67
2021/12/30 08:53:40;;;;;;;8.73;7.88;;;;;;;;;;4812255;29;32777;-64
2021/12/30 08:56:11;;;;;;;8.10;7.30;;;;;;;;;;4812254;29;32360;-66
2021/12/30 08:58:40;;;;;;;8.65;7.60;;;;;;;;;;4812427;29;32429;-65
2021/12/30 09:01:08;;;;;;;7.72;6.97;;;;;;;;;;4812436;29;32391;-66
2021/12/30 09:03:36;;;;;;;8.48;7.78;;;;;;;;;;4812041;29;35448;-66
2021/12/30 09:06:05;;;;;;;8.77;7.47;;;;;;;;;;4811811;29;32185;-67
2021/12/30 09:08:35;;;;;;;8.05;7.35;;;;;;;;;;4811305;29;32193;-67
2021/12/30 09:11:02;;;;;;;8.85;7.93;;;;;;;;;;4812018;29;32293;-67
2021/12/30 09:13:30;;;;;;;9.88;8.85;;;;;;;;;;4812062;29;35625;-67
2021/12/30 09:15:58;;;;;;;8.60;7.50;;;;;;;;;;4811533;29;32389;-64
2021/12/30 09:18:26;;;;;;;10.05;8.10;;;;;;;;;;4811712;29;32418;-69
2021/12/30 09:20:55;;;;;;;8.65;7.75;;;;;;;;;;4811920;29;32272;-67
2021/12/30 09:23:23;;;;;;;9.05;7.82;;;;;;;;;;4810942;29;32543;-66
2021/12/30 09:25:55;;;;;;;8.52;7.75;;;;;;;;;;4811687;29;35308;-70
2021/12/30 09:28:24;;;;;;;8.70;7.90;;;;;;;;;;4811762;29;32523;-66
2021/12/30 09:30:52;;;;;;;7.63;6.85;;;;;;;;;;4811852;29;32348;-67
2021/12/30 09:33:20;;;;;;;10.57;7.40;;;;;;;;;;4811779;29;32231;-69
2021/12/30 09:35:48;;;;;;;9.30;7.85;;;;;;;;;;4811189;29;34546;-67
2021/12/30 09:38:16;;;;;;;8.20;7.20;;;;;;;;;;4811178;29;32409;-66
2021/12/30 09:40:44;;;;;;;10.88;7.97;;;;;;;;;;4812145;29;32249;-68
2021/12/30 09:43:14;;;;;;;8.35;7.55;;;;;;;;;;4811366;29;32605;-65
2021/12/30 09:45:43;;;;;;;7.90;7.15;;;;;;;;;;4811651;29;32559;-69
2021/12/30 09:48:14;;;;;;;10.73;8.20;;;;;;;;;;4810969;29;35587;-66
2021/12/30 09:50:46;;;;;;;8.02;7.32;;;;;;;;;;4810551;29;32454;-66
2021/12/30 09:53:14;;;;;;;8.35;7.65;;;;;;;;;;4811110;29;32354;-68
2021/12/30 09:55:42;;;;;;;8.23;7.43;;;;;;;;;;4811452;29;32398;-65
2021/12/30 09:58:11;;;;;;;7.95;7.13;;;;;;;;;;4811050;29;34077;-68
2021/12/30 10:00:40;;;;;;;8.35;7.32;;;;;;;;;;4811498;29;32393;-67
2021/12/30 10:03:08;;;;;;;7.22;6.53;;;;;;;;;;4811585;29;32312;-65
2021/12/30 10:05:39;;;;;;;7.10;5.90;;;;;;;;;;4810978;29;32343;-66
2021/12/30 10:08:16;;;;;;;7.50;6.57;;;;;;;;;;4811647;29;32318;-67
2021/12/30 10:10:47;;;;;;;6.93;6.38;;;;;;;;;;4811605;29;34114;-67
2021/12/30 10:13:18;;;;;;;6.97;6.38;;;;;;;;;;4811443;29;32137;-68
2021/12/30 10:15:50;;;;;;;6.72;6.13;;;;;;;;;;4811038;29;32327;-66
2021/12/30 10:18:19;;;;;;;6.63;6.03;;;;;;;;;;4811487;29;32420;-69
2021/12/30 10:20:48;;;;;;;7.25;5.32;;;;;;;;;;4810910;29;34320;-67
2021/12/30 10:23:19;;;;;;;7.07;6.38;;;;;;;;;;4811105;29;32412;-65
2021/12/30 10:25:49;;;;;;;7.18;6.57;;;;;;;;;;4810803;29;32299;-65
2021/12/30 10:28:22;;;;;;;6.80;6.30;;;;;;;;;;4811036;29;32472;-66
2021/12/30 10:30:54;;;;;;;6.53;5.88;;;;;;;;;;4811057;29;32347;-70
2021/12/30 10:33:24;;;;;;;7.97;6.80;;;;;;;;;;4811286;29;32356;-70
2021/12/30 10:35:54;;;;;;;6.93;6.32;;;;;;;;;;4811203;29;32357;-67
2021/12/30 10:38:23;;;;;;;8.05;7.28;;;;;;;;;;4810621;29;32363;-66
2021/12/30 10:40:53;;;;;;;7.47;6.43;;;;;;;;;;4811169;29;32344;-66
2021/12/30 10:43:29;;;;;;;10.60;6.63;;;;;;;;;;4810725;29;35135;-66
2021/12/30 10:46:21;;;;;;;7.00;6.40;;;;;;;;;;4811040;29;32256;-68
2021/12/30 10:48:56;;;;;;;10.50;6.55;;;;;;;;;;4810624;29;32478;-67
2021/12/30 10:51:28;;;;;;;7.00;6.30;;;;;;;;;;4811071;29;32399;-65
2021/12/30 10:53:58;;;;;;;6.82;6.18;;;;;;;;;;4810635;29;32525;-67
2021/12/30 10:56:31;;;;;;;7.63;6.65;;;;;;;;;;4811528;29;32275;-66
2021/12/30 10:59:24;;;;;;;6.45;5.85;;;;;;;;;;4811521;29;32267;-64
2021/12/30 11:01:58;;;;;;;6.93;6.32;;;;;;;;;;4811386;29;32281;-65
2021/12/30 11:04:40;;;;;;;6.20;5.35;;;;;;;;;;4811773;29;32488;-68
2021/12/30 11:07:11;;;;;;;6.40;5.80;;;;;;;;;;4810827;29;35667;-67
2021/12/30 11:09:48;;;;;;;6.50;5.97;;;;;;;;;;4810748;29;32685;-66
2021/12/30 11:12:17;;;;;;;8.70;5.82;;;;;;;;;;4810955;29;32428;-67
2021/12/30 11:14:45;;;;;;;9.82;5.80;;;;;;;;;;4810784;29;32272;-67
2021/12/30 11:17:18;;;;;;;6.22;5.43;;;;;;;;;;4810465;29;32361;-66
2021/12/30 11:19:50;;;;;;;5.60;5.20;;;;;;;;;;4810756;29;32361;-65
2021/12/30 11:22:19;;;;;;;;;;;;;;;;;;4809333;29;32362;-65
2021/12/30 11:24:49;;;;;;;6.40;5.90;;;;;;;;;;4810979;29;32237;-65
2021/12/30 11:27:18;;;;;;;6.55;5.90;;;;;;;;;;4810557;29;32204;-65
2021/12/30 11:29:49;;;;;;;6.38;5.68;;;;;;;;;;4810457;29;33963;-65
2021/12/30 11:32:21;;;;;;;6.25;5.45;;;;;;;;;;4810582;29;32287;-70
2021/12/30 11:34:50;;;;;;;5.78;5.35;;;;;;;;;;4810368;29;32370;-68
2021/12/30 11:37:19;;;;;;;6.75;5.70;;;;;;;;;;4810045;29;32577;-67
2021/12/30 11:39:50;;;;;;;9.82;5.38;;;;;;;;;;4810297;29;32291;-67
2021/12/30 11:42:21;;;;;;;6.05;5.45;;;;;;;;;;4810462;29;32335;-70
2021/12/30 11:44:51;;;;;;;6.40;5.83;;;;;;;;;;4810164;29;32409;-67
2021/12/30 11:47:42;;;;;;;9.20;5.75;;;;;;;;;;4812193;29;32304;-66
2021/12/30 11:50:20;;;;;;;7.20;5.97;;;;;;;;;;4813871;29;32383;-66
2021/12/30 11:53:08;;;;;;;6.20;5.70;;;;;;;;;;4813062;29;34175;-66
2021/12/30 11:55:55;;;;;;;5.72;5.25;;;;;;;;;;4813390;29;32482;-68
2021/12/30 11:58:48;;;;;;;9.55;6.25;;;;;;;;;;4813110;29;32354;-66
2021/12/30 12:01:42;;;;;;;6.43;5.40;;;;;;;;;;4812815;29;32362;-67
2021/12/30 12:04:17;;;;;;;6.30;5.70;;;;;;;;;;4813214;29;32457;-66
2021/12/30 12:06:59;;;;;;;8.70;6.63;;;;;;;;;;4813064;29;32359;-66
2021/12/30 12:09:42;;;;;;;6.05;5.45;;;;;;;;;;4813528;29;32493;-68
2021/12/30 12:12:14;;;;;;;6.25;5.70;;;;;;;;;;4812911;29;32439;-64
2021/12/30 12:14:56;;;;;;;6.00;5.40;;;;;;;;;;4811453;29;32428;-68
2021/12/30 12:17:35;;;;;;;6.03;5.43;;;;;;;;;;4812842;29;34041;-67
2021/12/30 12:20:18;;;;;;;6.32;5.82;;;;;;;;;;4813060;29;32287;-67
2021/12/30 12:22:46;;;;;;;6.57;5.53;;;;;;;;;;4812917;29;32887;-65
2021/12/30 12:25:18;;;;;;;6.13;5.63;;;;;;;;;;4812555;29;32471;-65
2021/12/30 12:27:49;;;;;;;6.53;5.30;;;;;;;;;;4812807;29;32323;-66
2021/12/30 12:30:28;;;;;;;8.47;5.43;;;;;;;;;;4812937;29;32087;-65
2021/12/30 12:32:57;;;;;;;6.80;5.57;;;;;;;;;;4812788;29;32323;-69
2021/12/30 12:35:33;;;;;;;8.05;5.70;;;;;;;;;;4812316;29;32243;-66
2021/12/30 12:38:09;;;;;;;6.50;5.85;;;;;;;;;;4812504;29;32651;-66
2021/12/30 12:40:44;;;;;;;5.90;5.40;;;;;;;;;;4813009;29;34420;-66
2021/12/30 12:43:27;;;;;;;8.98;5.63;;;;;;;;;;4812501;29;32394;-65
2021/12/30 12:46:00;;;;;;;7.07;5.65;;;;;;;;;;4812114;29;32333;-65
2021/12/30 12:48:35;;;;;;;5.68;5.28;;;;;;;;;;4813218;29;32354;-69
2021/12/30 12:51:09;;;;;;;6.70;6.10;;;;;;;;;;4812501;29;35865;-65
2021/12/30 12:53:50;;;;;;;5.60;5.10;;;;;;;;;;4812878;29;32434;-65
2021/12/30 12:56:24;;;;;;;6.28;5.72;;;;;;;;;;4813500;29;32245;-66
2021/12/30 12:58:54;;;;;;;5.90;5.30;;;;;;;;;;4811107;29;32126;-65
2021/12/30 13:01:25;;;;;;;8.13;6.30;;;;;;;;;;4812601;29;32323;-68
2021/12/30 13:03:57;;;;;;;6.30;5.70;;;;;;;;;;4812424;29;34053;-65
2021/12/30 13:06:29;;;;;;;7.20;6.50;;;;;;;;;;4812377;29;32394;-65
2021/12/30 13:09:04;;;;;;;6.88;6.28;;;;;;;;;;4812379;29;32377;-65
2021/12/30 13:11:35;;;;;;;7.10;5.78;;;;;;;;;;4812636;29;32526;-66
2021/12/30 13:14:17;;;;;;;6.57;5.72;;;;;;;;;;4812091;29;35317;-65
2021/12/30 13:16:45;;;;;;;;;;;;;;;;;;4812886;29;32354;-66
2021/12/30 13:19:17;;;;;;;5.78;5.20;;;;;;;;;;4810902;29;32413;-65
2021/12/30 13:21:55;;;;;;;6.13;5.63;;;;;;;;;;4811927;29;32359;-65
2021/12/30 13:24:33;;;;;;;6.20;5.30;;;;;;;;;;4814603;29;32465;-67
2021/12/30 13:27:04;;;;;;;5.70;5.20;;;;;;;;;;4824019;29;35340;-67
2021/12/30 13:29:35;;;;;;;6.50;5.57;;;;;;;;;;4825950;29;32868;-66
2021/12/30 13:32:07;;;;;;;9.05;6.18;;;;;;;;;;4819460;29;32603;-68
2021/12/30 13:34:36;;;;;;;6.38;5.32;;;;;;;;;;4819819;29;32327;-68
2021/12/30 13:37:15;;;;;;;6.90;6.22;;;;;;;;;;4816661;29;34066;-67
2021/12/30 13:39:44;;;;;;;6.47;5.90;;;;;;;;;;4820292;29;32428;-68
2021/12/30 13:42:15;;;;;;;5.47;5.07;;;;;;;;;;4820066;29;32438;-67
2021/12/30 13:44:45;;;;;;;8.38;5.45;;;;;;;;;;4822150;29;32488;-68
2021/12/30 13:47:26;;;;;;;12.07;5.72;;;;;;;;;;4819843;29;32413;-68
2021/12/30 13:49:56;;;;;;;5.70;5.10;;;;;;;;;;4814565;29;35476;-68
2021/12/30 13:52:30;;;;;;;6.87;5.63;;;;;;;;;;4816896;29;32261;-67
2021/12/30 13:55:25;;;;;;;6.50;5.43;;;;;;;;;;4830304;29;32411;-68
2021/12/30 13:58:06;;;;;;;6.22;5.63;;;;;;;;;;4817880;29;32522;-70
2021/12/30 14:00:40;;;;;;;5.88;5.35;;;;;;;;;;4815808;29;33998;-65
2021/12/30 14:03:11;;;;;;;6.60;6.00;;;;;;;;;;4815448;29;32385;-67
2021/12/30 14:05:40;;;;;;;7.30;5.38;;;;;;;;;;4818639;29;32267;-66
2021/12/30 14:08:12;;;;;;;6.35;5.82;;;;;;;;;;4815879;29;32534;-65
2021/12/30 14:10:56;;;;;;;7.03;5.72;;;;;;;;;;4816775;29;32395;-66
2021/12/30 14:13:39;;;;;;;6.05;5.45;;;;;;;;;;4818846;29;35747;-67
2021/12/30 14:16:09;;;;;;;6.28;5.40;;;;;;;;;;4821843;29;32541;-67
2021/12/30 14:18:40;;;;;;;10.50;5.25;;;;;;;;;;4822224;29;32643;-66
2021/12/30 14:21:08;;;;;;;5.53;5.13;;;;;;;;;;4821135;29;32409;-68
2021/12/30 14:23:47;;;;;;;5.90;5.40;;;;;;;;;;4814591;29;62208;-67
2021/12/30 14:26:20;;;;;;;5.68;5.20;;;;;;;;;;4815410;29;32511;-70
2021/12/30 14:28:56;;;;;;;8.15;6.47;;;;;;;;;;4812393;29;32387;-66
2021/12/30 14:31:30;;;;;;;6.57;5.88;;;;;;;;;;4812235;29;32460;-68
2021/12/30 14:34:10;;;;;;;6.65;5.50;;;;;;;;;;4814755;29;32650;-68
2021/12/30 14:36:51;;;;;;;6.30;5.80;;;;;;;;;;4810807;29;33951;-66
2021/12/30 14:39:27;;;;;;;6.18;5.55;;;;;;;;;;4811848;29;32388;-68
2021/12/30 14:42:10;;;;;;;7.20;5.65;;;;;;;;;;4814949;29;32552;-69
2021/12/30 14:44:41;;;;;;;6.10;5.60;;;;;;;;;;4814696;29;32279;-70
2021/12/30 14:47:13;;;;;;;7.97;5.50;;;;;;;;;;4811368;29;33972;-68
2021/12/30 14:49:58;;;;;;;6.35;5.60;;;;;;;;;;4813087;29;32593;-67
2021/12/30 14:52:29;;;;;;;6.07;5.50;;;;;;;;;;4815160;29;32589;-67
2021/12/30 14:54:59;;;;;;;5.18;4.70;;;;;;;;;;4817659;29;32492;-69
2021/12/30 14:57:27;;;;;;;6.85;5.35;;;;;;;;;;4813929;29;33397;-66